Time;durP1;ratioP1;P1;durP2;ratioP2;P2;SDS_P1;SDS_P2;PMS_P1;PMS_P2;Temp;Humidity;BMP_temperature;BMP_pressure;BME280_temperature;BME280_humidity;BME280_pressure;Samples;Min_cycle;Max_cycle;Signal;HPM_P1;HPM_P2
2023/08/08 00:00:25;;;;;;;;;;;13.60;99.90;;;;;;2067155;28;21019;-76
2023/08/08 00:01:25;;;;;;;;;;;13.60;99.90;;;;;;2062243;28;19917;-76
2023/08/08 00:02:27;;;;;;;;;;;13.50;99.90;;;;;;2062189;28;20428;-76
2023/08/08 00:03:27;;;;;;;;;;;13.50;99.90;;;;;;2055409;28;20005;-77
2023/08/08 00:04:28;;;;;;;;;;;13.50;99.90;;;;;;2069728;28;19917;-76
2023/08/08 00:05:28;;;;;;;;;;;13.50;99.90;;;;;;2061239;28;20369;-77
2023/08/08 00:06:29;;;;;;;;;;;13.50;99.90;;;;;;2066731;28;19921;-77
2023/08/08 00:07:30;;;;;;;;;;;13.40;99.90;;;;;;2064857;28;20020;-76
2023/08/08 00:08:31;;;;;;;;;;;13.40;99.90;;;;;;2064973;28;19960;-78
2023/08/08 00:09:31;;;;;;;;;;;13.40;99.90;;;;;;2058059;28;19918;-78
2023/08/08 00:10:32;;;;;;;;;;;13.40;99.90;;;;;;2058230;28;20473;-75
2023/08/08 00:11:33;;;;;;;;;;;13.40;99.90;;;;;;2067566;28;20008;-77
2023/08/08 00:12:33;;;;;;;;;;;13.40;99.90;;;;;;2063759;28;19917;-74
2023/08/08 00:13:34;;;;;;;;;;;13.40;99.90;;;;;;2059453;28;20548;-76
2023/08/08 00:14:34;;;;;;;;;;;13.30;99.90;;;;;;2065132;28;19924;-78
2023/08/08 00:15:36;;;;;;;;;;;13.30;99.90;;;;;;2066205;28;19957;-77
2023/08/08 00:16:36;;;;;;;;;;;13.30;99.90;;;;;;2052277;28;19949;-76
2023/08/08 00:17:37;;;;;;;;;;;13.40;99.90;;;;;;2050497;28;19922;-77
2023/08/08 00:18:37;;;;;;;;;;;13.30;99.90;;;;;;2066242;28;19914;-77
2023/08/08 00:19:38;;;;;;;;;;;13.40;99.90;;;;;;2066521;28;19947;-77
2023/08/08 00:20:38;;;;;;;;;;;13.40;99.90;;;;;;2065988;28;20047;-77
2023/08/08 00:21:40;;;;;;;;;;;13.40;99.90;;;;;;2066672;28;20340;-77
2023/08/08 00:22:51;;;;;;;;;;;13.30;99.90;;;;;;2071224;28;19917;-77
2023/08/08 00:23:51;;;;;;;;;;;13.30;99.90;;;;;;2064495;28;19921;-77
2023/08/08 00:24:52;;;;;;;;;;;13.30;99.90;;;;;;2070902;28;19923;-76
2023/08/08 00:25:55;;;;;;;;;;;13.30;99.90;;;;;;2068737;28;19924;-77
2023/08/08 00:26:55;;;;;;;;;;;13.30;99.90;;;;;;2059759;28;20103;-76
2023/08/08 00:27:56;;;;;;;;;;;13.30;99.90;;;;;;2067669;28;19914;-77
2023/08/08 00:28:57;;;;;;;;;;;13.30;99.90;;;;;;2068136;28;19917;-77
2023/08/08 00:29:57;;;;;;;;;;;13.30;99.90;;;;;;2066323;28;20520;-77
2023/08/08 00:30:58;;;;;;;;;;;13.30;99.90;;;;;;2067038;28;19918;-77
2023/08/08 00:31:58;;;;;;;;;;;13.30;99.90;;;;;;2059070;28;20421;-77
2023/08/08 00:32:59;;;;;;;;;;;13.20;99.90;;;;;;2063528;28;20512;-76
2023/08/08 00:34:00;;;;;;;;;;;13.30;99.90;;;;;;2065168;28;20468;-77
2023/08/08 00:35:00;;;;;;;;;;;13.30;99.90;;;;;;2057984;28;19972;-76
2023/08/08 00:36:01;;;;;;;;;;;13.30;99.90;;;;;;2062681;28;19913;-75
2023/08/08 00:37:01;;;;;;;;;;;13.30;99.90;;;;;;2060236;28;19969;-76
2023/08/08 00:38:02;;;;;;;;;;;13.30;99.90;;;;;;2060163;28;20486;-76
2023/08/08 00:39:02;;;;;;;;;;;13.30;99.90;;;;;;2057623;28;19918;-78
2023/08/08 00:40:03;;;;;;;;;;;13.30;99.90;;;;;;2050758;28;19942;-76
2023/08/08 00:41:04;;;;;;;;;;;13.30;99.90;;;;;;2062816;28;19925;-77
2023/08/08 00:42:05;;;;;;;;;;;13.30;99.90;;;;;;2073739;28;19975;-77
2023/08/08 00:43:05;;;;;;;;;;;13.30;99.90;;;;;;2067294;28;20408;-77
2023/08/08 00:44:06;;;;;;;;;;;13.30;99.90;;;;;;2059410;28;20345;-78
2023/08/08 00:45:07;;;;;;;;;;;13.30;99.90;;;;;;2063033;28;20020;-76
2023/08/08 00:46:07;;;;;;;;;;;13.30;99.90;;;;;;2069457;28;19972;-77
2023/08/08 00:47:09;;;;;;;;;;;13.30;99.90;;;;;;2057242;28;19976;-77
2023/08/08 00:48:09;;;;;;;;;;;13.30;99.90;;;;;;2053472;28;20033;-76
2023/08/08 00:49:10;;;;;;;;;;;13.30;99.90;;;;;;2067501;28;20471;-77
2023/08/08 00:50:11;;;;;;;;;;;13.30;99.90;;;;;;2071095;28;20389;-76
2023/08/08 00:51:11;;;;;;;;;;;13.30;99.90;;;;;;2063851;28;19909;-75
2023/08/08 00:52:12;;;;;;;;;;;13.30;99.90;;;;;;2069529;28;19913;-77
2023/08/08 00:53:13;;;;;;;;;;;13.40;99.90;;;;;;2067487;28;20003;-77
2023/08/08 00:54:13;;;;;;;;;;;13.30;99.90;;;;;;2066453;28;20419;-76
2023/08/08 00:55:14;;;;;;;;;;;13.40;99.90;;;;;;2054473;28;19993;-77
2023/08/08 00:56:16;;;;;;;;;;;13.40;99.90;;;;;;2061780;28;20174;-77
2023/08/08 00:57:17;;;;;;;;;;;13.40;99.90;;;;;;2067536;28;19917;-77
2023/08/08 00:58:18;;;;;;;;;;;13.40;99.90;;;;;;2066710;28;20412;-77
2023/08/08 00:59:18;;;;;;;;;;;13.40;99.90;;;;;;2065796;28;20373;-77
2023/08/08 01:00:19;;;;;;;;;;;13.40;99.90;;;;;;2065119;28;20416;-76
2023/08/08 01:01:19;;;;;;;;;;;13.40;99.90;;;;;;2069624;28;19917;-77
2023/08/08 01:02:20;;;;;;;;;;;13.40;99.90;;;;;;2057812;28;20405;-77
2023/08/08 01:03:21;;;;;;;;;;;13.40;99.90;;;;;;2052105;28;19925;-77
2023/08/08 01:04:24;;;;;;;;;;;13.40;99.90;;;;;;2052216;28;20430;-77
2023/08/08 01:05:28;;;;;;;;;;;13.40;99.90;;;;;;2054578;28;19945;-77
2023/08/08 01:06:35;;;;;;;;;;;13.40;99.90;;;;;;2065805;28;19924;-77
2023/08/08 01:07:51;;;;;;;;;;;13.30;99.90;;;;;;2054604;28;19941;-76
2023/08/08 01:08:57;;;;;;;;;;;13.30;99.90;;;;;;2050980;28;20009;-77
2023/08/08 01:10:07;;;;;;;;;;;13.30;99.90;;;;;;2058687;28;19917;-78
2023/08/08 01:11:08;;;;;;;;;;;13.30;99.90;;;;;;2066388;28;19914;-77
2023/08/08 01:12:10;;;;;;;;;;;13.30;99.90;;;;;;2061503;28;19945;-78
2023/08/08 01:13:17;;;;;;;;;;;13.30;99.90;;;;;;2063339;28;19921;-77
2023/08/08 01:14:18;;;;;;;;;;;13.30;99.90;;;;;;2067510;28;19997;-77
2023/08/08 01:15:19;;;;;;;;;;;13.30;99.90;;;;;;2064030;28;19987;-77
2023/08/08 01:16:20;;;;;;;;;;;13.30;99.90;;;;;;2064884;28;19995;-77
2023/08/08 01:17:22;;;;;;;;;;;13.20;99.90;;;;;;2059438;28;20579;-76
2023/08/08 01:18:22;;;;;;;;;;;13.20;99.90;;;;;;2058159;28;20448;-76
2023/08/08 01:19:25;;;;;;;;;;;13.20;99.90;;;;;;2060056;28;19966;-77
2023/08/08 01:20:27;;;;;;;;;;;13.20;99.90;;;;;;2063196;28;19921;-77
2023/08/08 01:21:29;;;;;;;;;;;13.20;99.90;;;;;;2061188;28;19914;-77
2023/08/08 01:22:45;;;;;;;;;;;13.20;99.90;;;;;;2054789;28;20041;-77
2023/08/08 01:23:49;;;;;;;;;;;13.20;99.90;;;;;;2062764;28;20008;-77
2023/08/08 01:24:49;;;;;;;;;;;13.20;99.90;;;;;;2055395;28;20182;-78
2023/08/08 01:25:50;;;;;;;;;;;13.20;99.90;;;;;;2067199;28;20392;-78
2023/08/08 01:26:51;;;;;;;;;;;13.20;99.90;;;;;;2067116;28;19924;-76
2023/08/08 01:27:51;;;;;;;;;;;13.10;99.90;;;;;;2067947;28;20020;-77
2023/08/08 01:28:52;;;;;;;;;;;13.20;99.90;;;;;;2068774;28;19918;-77
2023/08/08 01:29:53;;;;;;;;;;;13.20;99.90;;;;;;2061560;28;20008;-77
2023/08/08 01:30:53;;;;;;;;;;;13.20;99.90;;;;;;2053965;28;19983;-77
2023/08/08 01:31:54;;;;;;;;;;;13.20;99.90;;;;;;2064000;28;19918;-76
2023/08/08 01:32:54;;;;;;;;;;;13.10;99.90;;;;;;2069099;28;20207;-77
2023/08/08 01:33:55;;;;;;;;;;;13.20;99.90;;;;;;2066921;28;19948;-76
2023/08/08 01:34:55;;;;;;;;;;;13.10;99.90;;;;;;2062811;28;20462;-76
2023/08/08 01:36:00;;;;;;;;;;;13.20;99.90;;;;;;2056149;28;20008;-76
2023/08/08 01:37:04;;;;;;;;;;;13.10;99.90;;;;;;2058728;28;20432;-78
2023/08/08 01:38:19;;;;;;;;;;;13.10;99.90;;;;;;2052022;28;20409;-76
2023/08/08 01:39:21;;;;;;;;;;;13.10;99.90;;;;;;2060895;28;19971;-77
2023/08/08 01:40:22;;;;;;;;;;;13.10;99.90;;;;;;2069153;28;19917;-77
2023/08/08 01:41:23;;;;;;;;;;;13.10;99.90;;;;;;2065361;28;20603;-79
2023/08/08 01:42:24;;;;;;;;;;;13.10;99.90;;;;;;2067543;28;20433;-77
2023/08/08 01:43:25;;;;;;;;;;;13.10;99.90;;;;;;2067045;28;19921;-77
2023/08/08 01:44:26;;;;;;;;;;;13.10;99.90;;;;;;2059099;28;20501;-76
2023/08/08 01:45:27;;;;;;;;;;;13.10;99.90;;;;;;2069259;28;20160;-77
2023/08/08 01:46:29;;;;;;;;;;;13.10;99.90;;;;;;2067064;28;19928;-77
2023/08/08 01:47:29;;;;;;;;;;;13.00;99.90;;;;;;2060521;28;19914;-77
2023/08/08 01:48:31;;;;;;;;;;;13.00;99.90;;;;;;2058822;28;19964;-78
2023/08/08 01:49:31;;;;;;;;;;;13.00;99.90;;;;;;2061267;28;19914;-77
2023/08/08 01:50:32;;;;;;;;;;;13.00;99.90;;;;;;2067883;28;19917;-77
2023/08/08 01:51:33;;;;;;;;;;;13.10;99.90;;;;;;2067918;28;20447;-77
2023/08/08 01:52:33;;;;;;;;;;;13.10;99.90;;;;;;2066850;28;19941;-77
2023/08/08 01:53:34;;;;;;;;;;;13.00;99.90;;;;;;2067180;28;20111;-77
2023/08/08 01:54:34;;;;;;;;;;;13.00;99.90;;;;;;2060832;28;20166;-77
2023/08/08 01:55:35;;;;;;;;;;;13.00;99.90;;;;;;2059964;28;20313;-78
2023/08/08 01:56:35;;;;;;;;;;;13.00;99.90;;;;;;2060590;28;19920;-78
2023/08/08 01:57:36;;;;;;;;;;;13.00;99.90;;;;;;2066816;28;20338;-78
2023/08/08 01:58:36;;;;;;;;;;;13.00;99.90;;;;;;2057286;28;20000;-77
2023/08/08 01:59:37;;;;;;;;;;;13.00;99.90;;;;;;2059049;28;20320;-77
2023/08/08 02:00:37;;;;;;;;;;;13.00;99.90;;;;;;2058785;28;19914;-79
2023/08/08 02:01:38;;;;;;;;;;;13.00;99.90;;;;;;2067107;28;19926;-77
2023/08/08 02:02:40;;;;;;;;;;;13.00;99.90;;;;;;2066955;28;20016;-77
2023/08/08 02:03:41;;;;;;;;;;;13.00;99.90;;;;;;2070060;28;20147;-77
2023/08/08 02:04:42;;;;;;;;;;;13.00;99.90;;;;;;2063289;28;20428;-77
2023/08/08 02:05:42;;;;;;;;;;;13.00;99.90;;;;;;2067904;28;19985;-78
2023/08/08 02:06:43;;;;;;;;;;;13.00;99.90;;;;;;2062655;28;20463;-78
2023/08/08 02:07:43;;;;;;;;;;;13.00;99.90;;;;;;2068876;28;19988;-77
2023/08/08 02:08:44;;;;;;;;;;;13.00;99.90;;;;;;2066767;28;19976;-77
2023/08/08 02:09:46;;;;;;;;;;;13.00;99.90;;;;;;2066798;28;19968;-77
2023/08/08 02:10:46;;;;;;;;;;;13.00;99.90;;;;;;2066803;28;20347;-77
2023/08/08 02:11:47;;;;;;;;;;;13.00;99.90;;;;;;2066304;28;20004;-77
2023/08/08 02:12:47;;;;;;;;;;;13.00;99.90;;;;;;2059399;28;19914;-77
2023/08/08 02:13:48;;;;;;;;;;;12.90;99.90;;;;;;2067508;28;20446;-77
2023/08/08 02:14:48;;;;;;;;;;;12.90;99.90;;;;;;2066676;28;20428;-78
2023/08/08 02:15:49;;;;;;;;;;;12.90;99.90;;;;;;2063071;28;20810;-76
2023/08/08 02:16:49;;;;;;;;;;;12.90;99.90;;;;;;2067508;28;19918;-77
2023/08/08 02:17:50;;;;;;;;;;;12.90;99.90;;;;;;2066676;28;20444;-77
2023/08/08 02:18:50;;;;;;;;;;;12.90;99.90;;;;;;2068722;28;19914;-77
2023/08/08 02:19:51;;;;;;;;;;;12.90;99.90;;;;;;2066628;28;19922;-77
2023/08/08 02:20:52;;;;;;;;;;;12.90;99.90;;;;;;2060052;28;20006;-78
2023/08/08 02:21:52;;;;;;;;;;;12.90;99.90;;;;;;2062011;28;19914;-77
2023/08/08 02:22:53;;;;;;;;;;;12.90;99.90;;;;;;2060904;28;20229;-76
2023/08/08 02:23:53;;;;;;;;;;;12.80;99.90;;;;;;2065980;28;20157;-76
2023/08/08 02:24:53;;;;;;;;;;;12.80;99.90;;;;;;2058754;28;20419;-76
2023/08/08 02:25:54;;;;;;;;;;;12.80;99.90;;;;;;2060478;28;19914;-77
2023/08/08 02:26:55;;;;;;;;;;;12.80;99.90;;;;;;2064046;28;19917;-77
2023/08/08 02:27:56;;;;;;;;;;;12.80;99.90;;;;;;2059779;28;20480;-76
2023/08/08 02:28:56;;;;;;;;;;;12.80;99.90;;;;;;2058529;28;19918;-77
2023/08/08 02:29:57;;;;;;;;;;;12.80;99.90;;;;;;2057888;28;20294;-78
2023/08/08 02:30:58;;;;;;;;;;;12.80;99.90;;;;;;2070567;28;19917;-77
2023/08/08 02:31:58;;;;;;;;;;;12.80;99.90;;;;;;2063301;28;19917;-77
2023/08/08 02:33:00;;;;;;;;;;;12.80;99.90;;;;;;2063008;28;19917;-77
2023/08/08 02:34:01;;;;;;;;;;;12.80;99.90;;;;;;2063484;28;20343;-77
2023/08/08 02:35:01;;;;;;;;;;;12.70;99.90;;;;;;2063943;28;19914;-78
2023/08/08 02:36:02;;;;;;;;;;;12.70;99.90;;;;;;2066789;28;19952;-76
2023/08/08 02:37:03;;;;;;;;;;;12.70;99.90;;;;;;2068758;28;19918;-78
2023/08/08 02:38:03;;;;;;;;;;;12.70;99.90;;;;;;2066651;28;19917;-79
2023/08/08 02:39:04;;;;;;;;;;;12.80;99.90;;;;;;2058087;28;19917;-78
2023/08/08 02:40:05;;;;;;;;;;;12.70;99.90;;;;;;2052784;28;19922;-77
2023/08/08 02:41:06;;;;;;;;;;;12.70;99.90;;;;;;2056427;28;20013;-78
2023/08/08 02:42:06;;;;;;;;;;;12.70;99.90;;;;;;2057594;28;19926;-77
2023/08/08 02:43:09;;;;;;;;;;;12.70;99.90;;;;;;2063295;28;19988;-77
2023/08/08 02:44:10;;;;;;;;;;;12.60;99.90;;;;;;2056217;28;19941;-76
2023/08/08 02:45:11;;;;;;;;;;;12.70;99.90;;;;;;2066751;28;20460;-78
2023/08/08 02:46:12;;;;;;;;;;;12.60;99.90;;;;;;2058280;28;20509;-79
2023/08/08 02:47:13;;;;;;;;;;;12.60;99.90;;;;;;2048421;28;19918;-77
2023/08/08 02:48:13;;;;;;;;;;;12.60;99.90;;;;;;2050825;28;19941;-79
2023/08/08 02:49:14;;;;;;;;;;;12.60;99.90;;;;;;2065984;28;19913;-78
2023/08/08 02:50:15;;;;;;;;;;;12.60;99.90;;;;;;2053703;28;19925;-78
2023/08/08 02:51:15;;;;;;;;;;;12.60;99.90;;;;;;2064300;28;19917;-78
2023/08/08 02:52:16;;;;;;;;;;;12.60;99.90;;;;;;2052966;28;19926;-75
2023/08/08 02:53:16;;;;;;;;;;;12.60;99.90;;;;;;2053905;28;20408;-76
2023/08/08 02:54:21;;;;;;;;;;;12.60;99.90;;;;;;2063714;28;19917;-78
2023/08/08 02:55:22;;;;;;;;;;;12.60;99.90;;;;;;2053852;28;19915;-77
2023/08/08 02:56:25;;;;;;;;;;;12.60;99.90;;;;;;2056865;28;19914;-77
2023/08/08 02:57:27;;;;;;;;;;;12.60;99.90;;;;;;2050527;28;19929;-79
2023/08/08 02:58:29;;;;;;;;;;;12.60;99.90;;;;;;2060202;28;20497;-79
2023/08/08 02:59:31;;;;;;;;;;;12.50;99.90;;;;;;2063159;28;20355;-76
2023/08/08 03:00:34;;;;;;;;;;;12.50;99.90;;;;;;2052348;28;20427;-77
2023/08/08 03:01:39;;;;;;;;;;;12.50;99.90;;;;;;2050613;28;20034;-77
2023/08/08 03:02:41;;;;;;;;;;;12.50;99.90;;;;;;2058378;28;19932;-77
2023/08/08 03:03:43;;;;;;;;;;;12.50;99.90;;;;;;2053289;28;19918;-77
2023/08/08 03:04:43;;;;;;;;;;;12.60;99.90;;;;;;2050194;28;20020;-77
2023/08/08 03:05:45;;;;;;;;;;;12.50;99.90;;;;;;2058276;28;19914;-76
2023/08/08 03:06:46;;;;;;;;;;;12.50;99.90;;;;;;2064438;28;19917;-78
2023/08/08 03:07:47;;;;;;;;;;;12.50;99.90;;;;;;2058388;28;20049;-77
2023/08/08 03:08:48;;;;;;;;;;;12.50;99.90;;;;;;2057761;28;19918;-78
2023/08/08 03:09:49;;;;;;;;;;;12.50;99.90;;;;;;2066511;28;19943;-77
2023/08/08 03:10:49;;;;;;;;;;;12.50;99.90;;;;;;2068625;28;19928;-77
2023/08/08 03:11:50;;;;;;;;;;;12.50;99.90;;;;;;2066155;28;20196;-77
2023/08/08 03:12:51;;;;;;;;;;;12.50;99.90;;;;;;2062498;28;19920;-77
2023/08/08 03:13:52;;;;;;;;;;;12.50;99.90;;;;;;2066464;28;19987;-78
2023/08/08 03:14:53;;;;;;;;;;;12.50;99.90;;;;;;2056748;28;19980;-77
2023/08/08 03:15:55;;;;;;;;;;;12.50;99.90;;;;;;2054893;28;19980;-77
2023/08/08 03:16:55;;;;;;;;;;;12.50;99.90;;;;;;2055851;28;19913;-78
2023/08/08 03:17:56;;;;;;;;;;;12.50;99.90;;;;;;2050334;28;19950;-76
2023/08/08 03:18:57;;;;;;;;;;;12.50;99.90;;;;;;2056400;28;20278;-77
2023/08/08 03:19:57;;;;;;;;;;;12.40;99.90;;;;;;2057976;28;19918;-76
2023/08/08 03:20:59;;;;;;;;;;;12.40;99.90;;;;;;2056598;28;19945;-79
2023/08/08 03:22:01;;;;;;;;;;;12.40;99.90;;;;;;2057868;28;19918;-76
2023/08/08 03:23:02;;;;;;;;;;;12.40;99.90;;;;;;2066367;28;20678;-76
2023/08/08 03:24:03;;;;;;;;;;;12.40;99.90;;;;;;2056077;28;20345;-77
2023/08/08 03:25:04;;;;;;;;;;;12.40;99.90;;;;;;2067859;28;19913;-77
2023/08/08 03:26:05;;;;;;;;;;;12.40;99.90;;;;;;2066992;28;19918;-77
2023/08/08 03:27:06;;;;;;;;;;;12.40;99.90;;;;;;2069015;28;20008;-78
2023/08/08 03:28:06;;;;;;;;;;;12.40;99.90;;;;;;2062922;28;19918;-78
2023/08/08 03:29:10;;;;;;;;;;;12.40;99.90;;;;;;2043820;28;19923;-78
2023/08/08 03:30:16;;;;;;;;;;;12.40;99.90;;;;;;2053900;28;19918;-78
2023/08/08 03:31:19;;;;;;;;;;;12.40;99.90;;;;;;2058916;28;20519;-78
2023/08/08 03:32:24;;;;;;;;;;;12.30;99.90;;;;;;2057904;28;20041;-77
2023/08/08 03:33:24;;;;;;;;;;;12.30;99.90;;;;;;2056616;28;19954;-78
2023/08/08 03:34:25;;;;;;;;;;;12.40;99.90;;;;;;2065916;28;20344;-77
2023/08/08 03:35:26;;;;;;;;;;;12.30;99.90;;;;;;2047536;28;20317;-78
2023/08/08 03:36:27;;;;;;;;;;;12.30;99.90;;;;;;2042753;28;20013;-77
2023/08/08 03:37:27;;;;;;;;;;;12.30;99.90;;;;;;2043155;28;19915;-78
2023/08/08 03:38:28;;;;;;;;;;;12.30;99.90;;;;;;2051878;28;19918;-78
2023/08/08 03:39:29;;;;;;;;;;;12.40;99.90;;;;;;2061778;28;19924;-77
2023/08/08 03:40:30;;;;;;;;;;;12.30;99.90;;;;;;2066434;28;19917;-78
2023/08/08 03:41:33;;;;;;;;;;;12.30;99.90;;;;;;2066350;28;19923;-78
2023/08/08 03:42:34;;;;;;;;;;;12.30;99.90;;;;;;2068072;28;19921;-78
2023/08/08 03:43:35;;;;;;;;;;;12.30;99.90;;;;;;2066638;28;19955;-78
2023/08/08 03:44:36;;;;;;;;;;;12.30;99.90;;;;;;2068406;28;20420;-78
2023/08/08 03:45:36;;;;;;;;;;;12.30;99.90;;;;;;2065525;28;20368;-77
2023/08/08 03:46:39;;;;;;;;;;;12.30;99.90;;;;;;2068746;28;19925;-77
2023/08/08 03:47:40;;;;;;;;;;;12.30;99.90;;;;;;2062576;28;19914;-77
2023/08/08 03:48:40;;;;;;;;;;;12.30;99.90;;;;;;2064294;28;19924;-78
2023/08/08 03:49:41;;;;;;;;;;;12.30;99.90;;;;;;2066484;28;19913;-77
2023/08/08 03:50:41;;;;;;;;;;;12.30;99.90;;;;;;2056677;28;19914;-77
2023/08/08 03:51:42;;;;;;;;;;;12.30;99.90;;;;;;2056131;28;20012;-76
2023/08/08 03:52:42;;;;;;;;;;;12.30;99.90;;;;;;2061062;28;19914;-78
2023/08/08 03:53:46;;;;;;;;;;;12.40;99.90;;;;;;2058494;28;20420;-77
2023/08/08 03:54:46;;;;;;;;;;;12.40;99.90;;;;;;2050680;28;19972;-76
2023/08/08 03:55:47;;;;;;;;;;;12.30;99.90;;;;;;2062949;28;19925;-76
2023/08/08 03:56:50;;;;;;;;;;;12.40;99.90;;;;;;2068036;28;19925;-76
2023/08/08 03:57:51;;;;;;;;;;;12.40;99.90;;;;;;2061133;28;20364;-76
2023/08/08 03:58:52;;;;;;;;;;;12.40;99.90;;;;;;2053647;28;20496;-76
2023/08/08 03:59:52;;;;;;;;;;;12.40;99.90;;;;;;2054803;28;19921;-76
2023/08/08 04:00:54;;;;;;;;;;;12.40;99.90;;;;;;2058746;28;19925;-76
2023/08/08 04:01:58;;;;;;;;;;;12.40;99.90;;;;;;2069295;28;20008;-76
2023/08/08 04:03:00;;;;;;;;;;;12.40;99.90;;;;;;2058340;28;20297;-77
2023/08/08 04:04:00;;;;;;;;;;;12.40;99.90;;;;;;2059606;28;19920;-76
2023/08/08 04:05:01;;;;;;;;;;;12.40;99.90;;;;;;2055993;28;19921;-77
2023/08/08 04:06:02;;;;;;;;;;;12.50;99.90;;;;;;2066056;28;19913;-76
2023/08/08 04:07:02;;;;;;;;;;;12.50;99.90;;;;;;2067979;28;19925;-77
2023/08/08 04:08:03;;;;;;;;;;;12.50;99.90;;;;;;2056317;28;19926;-76
2023/08/08 04:09:03;;;;;;;;;;;12.50;99.90;;;;;;2062896;28;19918;-75
2023/08/08 04:10:04;;;;;;;;;;;12.50;99.90;;;;;;2055014;28;19926;-76
2023/08/08 04:11:05;;;;;;;;;;;12.50;99.90;;;;;;2053846;28;19922;-77
2023/08/08 04:12:05;;;;;;;;;;;12.60;99.90;;;;;;2060546;28;20045;-75
2023/08/08 04:13:07;;;;;;;;;;;12.60;99.90;;;;;;2057681;28;19914;-77
2023/08/08 04:14:07;;;;;;;;;;;12.60;99.90;;;;;;2045368;28;19993;-77
2023/08/08 04:15:09;;;;;;;;;;;12.60;99.90;;;;;;2049235;28;19915;-78
2023/08/08 04:16:10;;;;;;;;;;;12.70;99.90;;;;;;2065094;28;19971;-77
2023/08/08 04:17:13;;;;;;;;;;;12.70;99.90;;;;;;2071274;28;20087;-77
2023/08/08 04:18:14;;;;;;;;;;;12.70;99.90;;;;;;2065739;28;19918;-76
2023/08/08 04:19:14;;;;;;;;;;;12.80;99.90;;;;;;2065032;28;20324;-76
2023/08/08 04:20:15;;;;;;;;;;;12.80;99.90;;;;;;2065450;28;19913;-77
2023/08/08 04:21:16;;;;;;;;;;;12.80;99.90;;;;;;2060088;28;19914;-76
2023/08/08 04:22:17;;;;;;;;;;;12.80;99.90;;;;;;2053707;28;19922;-77
2023/08/08 04:23:17;;;;;;;;;;;12.80;99.90;;;;;;2059022;28;19930;-77
2023/08/08 04:24:18;;;;;;;;;;;12.90;99.90;;;;;;2059562;28;19914;-77
2023/08/08 04:25:20;;;;;;;;;;;12.90;99.90;;;;;;2065203;28;20013;-77
2023/08/08 04:26:21;;;;;;;;;;;13.00;99.90;;;;;;2065161;28;19918;-77
2023/08/08 04:27:21;;;;;;;;;;;13.00;99.90;;;;;;2067830;28;20005;-77
2023/08/08 04:28:22;;;;;;;;;;;13.10;99.90;;;;;;2067624;28;20451;-78
2023/08/08 04:29:22;;;;;;;;;;;13.20;99.90;;;;;;2068216;28;20376;-78
2023/08/08 04:30:23;;;;;;;;;;;13.40;99.90;;;;;;2057787;28;19961;-77
2023/08/08 04:31:25;;;;;;;;;;;13.70;99.90;;;;;;2063338;28;19917;-78
2023/08/08 04:32:26;;;;;;;;;;;14.00;99.90;;;;;;2067163;28;19917;-80
2023/08/08 04:33:26;;;;;;;;;;;14.30;99.90;;;;;;2067427;28;19993;-77
2023/08/08 04:34:27;;;;;;;;;;;14.60;99.90;;;;;;2067543;28;19921;-76
2023/08/08 04:35:27;;;;;;;;;;;14.80;99.90;;;;;;2070083;28;19952;-77
2023/08/08 04:36:28;;;;;;;;;;;15.10;99.90;;;;;;2063776;28;20454;-77
2023/08/08 04:37:29;;;;;;;;;;;15.30;99.90;;;;;;2067653;28;19945;-77
2023/08/08 04:38:29;;;;;;;;;;;15.50;99.90;;;;;;2067748;28;20412;-77
2023/08/08 04:39:30;;;;;;;;;;;15.70;99.90;;;;;;2069736;28;19917;-77
2023/08/08 04:40:30;;;;;;;;;;;15.80;99.90;;;;;;2071903;28;20288;-78
2023/08/08 04:41:31;;;;;;;;;;;16.00;99.90;;;;;;2059906;28;20510;-79
2023/08/08 04:42:31;;;;;;;;;;;16.20;99.90;;;;;;2067098;28;20238;-79
2023/08/08 04:43:32;;;;;;;;;;;16.10;99.90;;;;;;2067725;28;19913;-79
2023/08/08 04:44:32;;;;;;;;;;;16.00;99.90;;;;;;2057160;28;19962;-78
2023/08/08 04:45:33;;;;;;;;;;;15.90;99.90;;;;;;2058954;28;20361;-77
2023/08/08 04:46:33;;;;;;;;;;;15.90;99.90;;;;;;2055081;28;20554;-78
2023/08/08 04:47:34;;;;;;;;;;;15.80;99.90;;;;;;2059636;28;19944;-78
2023/08/08 04:48:35;;;;;;;;;;;15.60;99.90;;;;;;2061921;28;19918;-77
2023/08/08 04:49:35;;;;;;;;;;;15.50;99.90;;;;;;2066903;28;20039;-77
2023/08/08 04:50:36;;;;;;;;;;;15.60;99.90;;;;;;2067593;28;20393;-78
2023/08/08 04:51:36;;;;;;;;;;;15.50;99.90;;;;;;2067620;28;19975;-77
2023/08/08 04:52:37;;;;;;;;;;;15.60;99.90;;;;;;2055428;28;20380;-77
2023/08/08 04:53:37;;;;;;;;;;;15.50;99.90;;;;;;2063951;28;20019;-75
2023/08/08 04:54:38;;;;;;;;;;;15.60;99.90;;;;;;2069805;28;20376;-76
2023/08/08 04:55:39;;;;;;;;;;;15.60;99.90;;;;;;2061157;28;20392;-76
2023/08/08 04:56:39;;;;;;;;;;;15.50;99.90;;;;;;2054441;28;20143;-76
2023/08/08 04:57:40;;;;;;;;;;;15.40;99.90;;;;;;2067230;28;19918;-76
2023/08/08 04:58:40;;;;;;;;;;;15.20;99.90;;;;;;2064813;28;19936;-75
2023/08/08 04:59:42;;;;;;;;;;;15.10;99.90;;;;;;2069337;28;20027;-77
2023/08/08 05:00:43;;;;;;;;;;;15.00;99.90;;;;;;2066341;28;19922;-77
2023/08/08 05:01:43;;;;;;;;;;;14.90;99.90;;;;;;2064013;28;19925;-78
2023/08/08 05:02:43;;;;;;;;;;;14.90;99.90;;;;;;2072432;28;20465;-78
2023/08/08 05:03:44;;;;;;;;;;;14.80;99.90;;;;;;2076270;28;19917;-78
2023/08/08 05:04:45;;;;;;;;;;;14.80;99.90;;;;;;2065873;28;19924;-75
2023/08/08 05:05:45;;;;;;;;;;;14.70;99.90;;;;;;2069450;28;19920;-78
2023/08/08 05:06:46;;;;;;;;;;;14.80;99.90;;;;;;2051364;28;20183;-78
2023/08/08 05:07:46;;;;;;;;;;;14.80;99.90;;;;;;2059575;28;19921;-76
2023/08/08 05:08:48;;;;;;;;;;;14.90;99.90;;;;;;2063791;28;19920;-77
2023/08/08 05:09:49;;;;;;;;;;;14.80;99.90;;;;;;2067443;28;20016;-78
2023/08/08 05:10:49;;;;;;;;;;;14.90;99.90;;;;;;2067400;28;19921;-76
2023/08/08 05:11:50;;;;;;;;;;;15.00;99.90;;;;;;2069135;28;20384;-77
2023/08/08 05:12:50;;;;;;;;;;;15.00;99.90;;;;;;2064152;28;20369;-78
2023/08/08 05:13:51;;;;;;;;;;;15.20;99.90;;;;;;2067338;28;20391;-78
2023/08/08 05:14:51;;;;;;;;;;;15.40;99.90;;;;;;2067482;28;19983;-77
2023/08/08 05:15:52;;;;;;;;;;;15.70;99.90;;;;;;2061624;28;19917;-78
2023/08/08 05:16:52;;;;;;;;;;;16.00;99.90;;;;;;2055152;28;20442;-78
2023/08/08 05:17:54;;;;;;;;;;;16.20;99.90;;;;;;2062660;28;19925;-78
2023/08/08 05:18:55;;;;;;;;;;;16.20;99.90;;;;;;2067306;28;19917;-78
2023/08/08 05:19:55;;;;;;;;;;;16.30;99.90;;;;;;2069286;28;19914;-78
2023/08/08 05:20:56;;;;;;;;;;;16.40;99.90;;;;;;2066278;28;20270;-79
2023/08/08 05:21:57;;;;;;;;;;;16.70;99.90;;;;;;2057819;28;19918;-78
2023/08/08 05:22:57;;;;;;;;;;;16.90;99.90;;;;;;2057613;28;20009;-77
2023/08/08 05:23:58;;;;;;;;;;;16.90;99.90;;;;;;2055122;28;19968;-77
2023/08/08 05:24:58;;;;;;;;;;;16.90;99.90;;;;;;2058605;28;19922;-77
2023/08/08 05:25:59;;;;;;;;;;;17.10;99.90;;;;;;2058780;28;19914;-78
2023/08/08 05:26:59;;;;;;;;;;;17.30;99.90;;;;;;2070080;28;20028;-77
2023/08/08 05:28:00;;;;;;;;;;;17.40;99.90;;;;;;2067470;28;19960;-77
2023/08/08 05:29:00;;;;;;;;;;;17.50;99.90;;;;;;2069066;28;20423;-79
2023/08/08 05:30:01;;;;;;;;;;;17.30;99.90;;;;;;2068739;28;19917;-78
2023/08/08 05:31:01;;;;;;;;;;;17.50;99.90;;;;;;2064763;28;20163;-77
2023/08/08 05:32:04;;;;;;;;;;;17.60;99.90;;;;;;2064267;28;19909;-73
2023/08/08 05:33:04;;;;;;;;;;;17.80;99.90;;;;;;2065281;28;20582;-73
2023/08/08 05:34:05;;;;;;;;;;;18.10;99.90;;;;;;2066916;28;19949;-73
2023/08/08 05:35:05;;;;;;;;;;;18.10;99.90;;;;;;2066805;28;19922;-73
2023/08/08 05:36:06;;;;;;;;;;;18.30;99.90;;;;;;2067968;28;20150;-72
2023/08/08 05:37:06;;;;;;;;;;;18.40;99.90;;;;;;2067167;28;19913;-73
2023/08/08 05:38:07;;;;;;;;;;;18.70;99.90;;;;;;2060980;28;20408;-70
2023/08/08 05:39:09;;;;;;;;;;;18.90;99.90;;;;;;2066230;28;19917;-76
2023/08/08 05:40:10;;;;;;;;;;;19.00;99.90;;;;;;2061402;28;19928;-75
2023/08/08 05:41:10;;;;;;;;;;;18.80;99.90;;;;;;2054408;28;20453;-70
2023/08/08 05:42:11;;;;;;;;;;;18.30;99.90;;;;;;2064027;28;20008;-70
2023/08/08 05:43:16;;;;;;;;;;;17.90;99.90;;;;;;2069717;28;19914;-69
2023/08/08 05:44:17;;;;;;;;;;;17.60;99.90;;;;;;2067194;28;19920;-69
2023/08/08 05:45:17;;;;;;;;;;;17.40;99.90;;;;;;2067170;28;19976;-69
2023/08/08 05:46:18;;;;;;;;;;;17.20;99.90;;;;;;2068004;28;19913;-69
2023/08/08 05:47:19;;;;;;;;;;;17.00;99.90;;;;;;2067905;28;19918;-69
2023/08/08 05:48:20;;;;;;;;;;;16.80;99.90;;;;;;2069569;28;20018;-70
2023/08/08 05:49:20;;;;;;;;;;;16.60;99.90;;;;;;2065261;28;19922;-70
2023/08/08 05:50:21;;;;;;;;;;;16.40;99.90;;;;;;2067037;28;19918;-70
2023/08/08 05:51:21;;;;;;;;;;;16.20;99.90;;;;;;2067281;28;19916;-70
2023/08/08 05:52:22;;;;;;;;;;;16.00;99.90;;;;;;2069876;28;20380;-70
2023/08/08 05:53:22;;;;;;;;;;;15.80;99.90;;;;;;2067001;28;19995;-70
2023/08/08 05:54:23;;;;;;;;;;;15.70;99.90;;;;;;2067101;28;20448;-70
2023/08/08 05:55:23;;;;;;;;;;;15.50;99.90;;;;;;2066905;28;19960;-72